createdAt,value
2023-04-20T00:00:56.062Z,3.5
2023-04-20T00:01:57.627Z,3.400000095
2023-04-20T00:02:59.828Z,3.299999952
2023-04-20T00:04:01.708Z,3.299999952
2023-04-20T00:05:02.561Z,3.700000048
2023-04-20T00:06:03.751Z,3.799999952
2023-04-20T00:07:05.498Z,3.400000095
2023-04-20T00:08:07.159Z,2.900000095
2023-04-20T00:09:08.238Z,3.099999905
2023-04-20T00:10:10.134Z,2.900000095
2023-04-20T00:11:11.110Z,3
2023-04-20T00:12:13.301Z,2.599999905
2023-04-20T00:13:15.288Z,2.900000095
2023-04-20T00:14:16.266Z,3
2023-04-20T00:15:17.335Z,3
2023-04-20T00:16:18.375Z,3.799999952
2023-04-20T00:17:20.054Z,2.799999952
2023-04-20T00:18:21.463Z,2.5
2023-04-20T00:19:53.731Z,2.700000048
2023-04-20T00:20:54.760Z,3
2023-04-20T00:21:56.581Z,2.400000095
2023-04-20T00:22:57.511Z,2.599999905
2023-04-20T00:23:59.131Z,2.900000095
2023-04-20T00:25:01.080Z,2.5
2023-04-20T00:26:02.108Z,2.400000095
2023-04-20T00:27:04.049Z,2.299999952
2023-04-20T00:28:04.939Z,2.700000048
2023-04-20T00:29:05.946Z,2.400000095
2023-04-20T00:30:07.643Z,2.299999952
2023-04-20T00:31:08.697Z,2.400000095
2023-04-20T00:32:10.570Z,2.400000095
2023-04-20T00:33:11.494Z,2.599999905
2023-04-20T00:34:12.514Z,2.299999952
2023-04-20T00:35:13.773Z,2.700000048
2023-04-20T00:36:14.719Z,2.5
2023-04-20T00:37:16.545Z,2.5
2023-04-20T00:38:17.478Z,2.400000095
2023-04-20T00:39:19.302Z,2.200000048
2023-04-20T00:40:21.228Z,2.599999905
2023-04-20T00:41:53.557Z,2.900000095
2023-04-20T00:42:54.983Z,2.299999952
2023-04-20T00:43:55.979Z,2.5
2023-04-20T00:44:57.000Z,2.099999905
2023-04-20T00:45:58.034Z,2.799999952
2023-04-20T00:46:58.942Z,2.5
2023-04-20T00:48:00.696Z,3
2023-04-20T00:49:02.612Z,2.799999952
2023-04-20T00:50:03.676Z,2.599999905
2023-04-20T00:51:05.569Z,2.599999905
2023-04-20T00:52:07.043Z,2.400000095
2023-04-20T00:53:08.047Z,2.599999905
2023-04-20T00:54:09.118Z,2.900000095
2023-04-20T00:55:10.248Z,2.5
2023-04-20T00:56:11.265Z,2.700000048
2023-04-20T00:57:13.261Z,2.5
2023-04-20T00:58:14.364Z,2.5
2023-04-20T00:59:15.593Z,2.599999905
2023-04-20T01:00:16.431Z,2.599999905
2023-04-20T01:01:17.442Z,2.799999952
2023-04-20T01:02:19.160Z,2.5
2023-04-20T01:03:20.166Z,3
2023-04-20T01:04:52.562Z,3.200000048
2023-04-20T01:05:53.764Z,2.799999952
2023-04-20T01:06:54.766Z,2.700000048
2023-04-20T01:07:56.462Z,3.099999905
2023-04-20T01:08:57.625Z,2.599999905
2023-04-20T01:09:59.597Z,2.599999905
2023-04-20T01:11:00.579Z,3
2023-04-20T01:12:02.608Z,2.900000095
2023-04-20T01:13:04.664Z,2.900000095
2023-04-20T01:14:06.635Z,2.700000048
2023-04-20T01:15:07.621Z,2.700000048
2023-04-20T01:16:08.611Z,2.400000095
2023-04-20T01:17:10.197Z,2.900000095
2023-04-20T01:18:11.254Z,2.799999952
2023-04-20T01:19:13.503Z,2.700000048
2023-04-20T01:20:14.649Z,2.400000095
2023-04-20T01:21:15.642Z,2.700000048
2023-04-20T01:22:18.048Z,2.599999905
2023-04-20T01:23:19.015Z,2.700000048
2023-04-20T01:24:21.074Z,3.200000048
2023-04-20T01:25:53.064Z,2.400000095
2023-04-20T01:26:54.016Z,2.5
2023-04-20T01:27:55.631Z,3.400000095
2023-04-20T01:28:57.599Z,3
2023-04-20T01:29:58.794Z,2.900000095
2023-04-20T01:31:00.671Z,2.799999952
2023-04-20T01:32:01.579Z,3.799999952
2023-04-20T01:33:03.042Z,2.099999905
2023-04-20T01:34:05.064Z,2.400000095
2023-04-20T01:35:06.111Z,2.900000095
2023-04-20T01:36:07.067Z,2.799999952
2023-04-20T01:37:09.179Z,2.599999905
2023-04-20T01:38:10.072Z,2.900000095
2023-04-20T01:39:12.105Z,2.799999952
2023-04-20T01:40:14.070Z,2.5
2023-04-20T01:41:15.065Z,2.5
2023-04-20T01:42:16.578Z,3
2023-04-20T01:43:17.673Z,2.900000095
2023-04-20T01:44:19.655Z,2.700000048
2023-04-20T01:45:51.320Z,2.799999952
2023-04-20T01:46:52.463Z,2.900000095
2023-04-20T01:47:54.190Z,3.099999905
2023-04-20T01:48:55.058Z,3.400000095
2023-04-20T01:49:56.273Z,3
2023-04-20T01:50:57.304Z,2.5
2023-04-20T01:51:58.273Z,3
2023-04-20T01:53:00.048Z,2.799999952
2023-04-20T01:54:00.993Z,3
2023-04-20T01:55:01.951Z,3
2023-04-20T01:56:03.492Z,3.099999905
2023-04-20T01:57:04.574Z,2.599999905
2023-04-20T01:58:06.645Z,3.099999905
2023-04-20T01:59:07.528Z,3.299999952
2023-04-20T02:00:08.541Z,2.700000048
2023-04-20T02:01:09.490Z,2.400000095
2023-04-20T02:02:11.160Z,2.799999952
2023-04-20T02:03:12.537Z,2.799999952
2023-04-20T02:04:14.148Z,3
2023-04-20T02:05:16.055Z,2.799999952
2023-04-20T02:06:16.881Z,2.799999952
2023-04-20T02:07:18.539Z,2.700000048
2023-04-20T02:08:19.483Z,2.400000095
2023-04-20T02:09:52.110Z,2.799999952
2023-04-20T02:10:53.573Z,2.900000095
2023-04-20T02:11:54.506Z,2.799999952
2023-04-20T02:12:56.098Z,2.700000048
2023-04-20T02:13:57.994Z,2.700000048
2023-04-20T02:14:59.048Z,2.900000095
2023-04-20T02:15:59.951Z,2.799999952
2023-04-20T02:17:01.595Z,2.900000095
2023-04-20T02:18:03.664Z,2.700000048
2023-04-20T02:19:04.745Z,2.400000095
2023-04-20T02:20:05.783Z,2.799999952
2023-04-20T02:21:06.666Z,2.700000048
2023-04-20T02:22:08.466Z,2.400000095
2023-04-20T02:23:10.067Z,2.299999952
2023-04-20T02:24:11.089Z,2.799999952
2023-04-20T02:25:12.051Z,2.599999905
2023-04-20T02:26:12.825Z,2.799999952
2023-04-20T02:27:14.551Z,2.599999905
2023-04-20T02:28:15.560Z,2.900000095
2023-04-20T02:29:17.326Z,2.299999952
2023-04-20T02:30:17.990Z,2.5
2023-04-20T02:31:18.931Z,2
2023-04-20T02:32:51.193Z,2.400000095
2023-04-20T02:33:52.540Z,2.599999905
2023-04-20T02:34:53.461Z,2.599999905
2023-04-20T02:35:54.391Z,2.400000095
2023-04-20T02:36:55.341Z,3
2023-04-20T02:37:56.402Z,3
2023-04-20T02:38:58.073Z,2.599999905
2023-04-20T02:39:59.557Z,2.700000048
2023-04-20T02:41:00.511Z,3.200000048
2023-04-20T02:42:02.062Z,2.299999952
2023-04-20T02:43:04.188Z,2.299999952
2023-04-20T02:44:06.003Z,2.700000048
2023-04-20T02:45:06.933Z,2.099999905
2023-04-20T02:46:07.954Z,2.599999905
2023-04-20T02:47:09.814Z,2.5
2023-04-20T02:48:10.781Z,2.5
2023-04-20T02:49:11.826Z,2.200000048
2023-04-20T02:50:12.728Z,2.5
2023-04-20T02:51:14.546Z,2.5
2023-04-20T02:52:16.047Z,2.299999952
2023-04-20T02:53:18.050Z,2.900000095
2023-04-20T02:54:19.550Z,2.099999905
2023-04-20T02:55:51.528Z,2.099999905
2023-04-20T02:56:52.496Z,2.400000095
2023-04-20T02:57:54.012Z,2.799999952
2023-04-20T02:58:54.943Z,2.599999905
2023-04-20T02:59:56.070Z,2.299999952
2023-04-20T03:00:57.036Z,2.299999952
2023-04-20T03:01:58.095Z,2.299999952
2023-04-20T03:02:59.583Z,2.299999952
2023-04-20T03:04:01.269Z,2.700000048
2023-04-20T03:05:02.100Z,2.400000095
2023-04-20T03:06:03.209Z,2.400000095
2023-04-20T03:07:04.312Z,2.700000048
2023-04-20T03:08:06.073Z,2.400000095
2023-04-20T03:09:07.565Z,2.5
2023-04-20T03:10:09.114Z,2.5
2023-04-20T03:11:10.043Z,2.400000095
2023-04-20T03:12:11.817Z,2.599999905
2023-04-20T03:13:13.758Z,2.5
2023-04-20T03:14:15.588Z,2.400000095
2023-04-20T03:15:16.638Z,2.299999952
2023-04-20T03:16:17.699Z,2.299999952
2023-04-20T03:17:19.571Z,3.099999905
2023-04-20T03:18:50.969Z,2.900000095
2023-04-20T03:19:52.466Z,2.799999952
2023-04-20T03:20:53.460Z,2.299999952
2023-04-20T03:21:54.613Z,2.5
2023-04-20T03:22:56.484Z,2.700000048
2023-04-20T03:23:58.188Z,2.200000048
2023-04-20T03:24:59.107Z,2.599999905
2023-04-20T03:25:59.996Z,2.700000048
2023-04-20T03:27:00.928Z,2.400000095
2023-04-20T03:28:02.611Z,2.299999952
2023-04-20T03:29:04.059Z,2.700000048
2023-04-20T03:30:05.005Z,2.5
2023-04-20T03:31:05.909Z,2.5
2023-04-20T03:32:06.992Z,2.400000095
2023-04-20T03:33:08.780Z,2.200000048
2023-04-20T03:34:10.585Z,2.799999952
2023-04-20T03:35:11.529Z,3
2023-04-20T03:36:12.357Z,2.599999905
2023-04-20T03:37:14.082Z,3
2023-04-20T03:38:45.254Z,2.200000048
2023-04-20T03:40:18.104Z,2.700000048
2023-04-20T03:41:49.875Z,2.400000095
2023-04-20T03:42:51.477Z,2.5
2023-04-20T03:43:53.096Z,3.200000048
2023-04-20T03:44:54.513Z,2.099999905
2023-04-20T03:45:55.415Z,2.900000095
2023-04-20T03:46:56.249Z,2.599999905
2023-04-20T03:47:58.138Z,2.799999952
2023-04-20T03:48:59.086Z,2.700000048
2023-04-20T03:49:59.941Z,2.700000048
2023-04-20T03:51:00.956Z,2.5
2023-04-20T03:52:01.844Z,3.200000048
2023-04-20T03:53:03.461Z,2.299999952
2023-04-20T03:54:05.028Z,2.599999905
2023-04-20T03:55:05.917Z,2.700000048
2023-04-20T03:56:06.796Z,3.5
2023-04-20T03:57:07.812Z,2.5
2023-04-20T03:58:09.488Z,3
2023-04-20T03:59:10.398Z,3.200000048
2023-04-20T04:00:11.245Z,2.700000048
2023-04-20T04:01:12.236Z,3.099999905
2023-04-20T04:02:14.040Z,3.299999952
2023-04-20T04:03:15.589Z,2.900000095
2023-04-20T04:04:17.219Z,2.799999952
2023-04-20T04:05:17.967Z,2.599999905
2023-04-20T04:06:49.452Z,3
2023-04-20T04:07:51.014Z,2.599999905
2023-04-20T04:08:52.132Z,3.400000095
2023-04-20T04:09:54.046Z,2.900000095
2023-04-20T04:10:55.530Z,2.700000048
2023-04-20T04:11:56.416Z,2.900000095
2023-04-20T04:12:58.209Z,3
2023-04-20T04:14:00.043Z,2.700000048
2023-04-20T04:15:01.057Z,3.200000048
2023-04-20T04:16:03.089Z,3.200000048
2023-04-20T04:17:05.098Z,2.599999905
2023-04-20T04:18:06.817Z,3.200000048
2023-04-20T04:19:07.769Z,2.799999952
2023-04-20T04:20:08.717Z,3.200000048
2023-04-20T04:21:09.596Z,3.299999952
2023-04-20T04:22:10.528Z,3.200000048
2023-04-20T04:23:12.076Z,2.799999952
2023-04-20T04:24:13.833Z,3.200000048
2023-04-20T04:25:14.798Z,3.200000048
2023-04-20T04:26:15.682Z,3.099999905
2023-04-20T04:27:17.624Z,3.099999905
2023-04-20T04:28:49.272Z,3.200000048
2023-04-20T04:29:50.338Z,3.299999952
2023-04-20T04:30:51.295Z,3.299999952
2023-04-20T04:31:52.280Z,2.799999952
2023-04-20T04:32:54.090Z,3.5
2023-04-20T04:33:55.540Z,3.599999905
2023-04-20T04:34:56.483Z,3.200000048
2023-04-20T04:35:58.057Z,3.400000095
2023-04-20T04:36:58.939Z,3
2023-04-20T04:38:00.580Z,3.200000048
2023-04-20T04:39:01.579Z,3.599999905
2023-04-20T04:40:04.442Z,3.200000048
2023-04-20T04:41:05.590Z,3.200000048
2023-04-20T04:42:06.524Z,2.900000095
2023-04-20T04:43:07.459Z,3.299999952
2023-04-20T04:44:08.999Z,4
2023-04-20T04:45:10.674Z,3.299999952
2023-04-20T04:46:11.717Z,4.099999905
2023-04-20T04:47:12.685Z,3.599999905
2023-04-20T04:48:14.625Z,3.400000095
2023-04-20T04:49:15.610Z,3.200000048
2023-04-20T04:50:16.370Z,3.599999905
2023-04-20T04:51:17.305Z,3.700000048
2023-04-20T04:52:49.678Z,3.700000048
2023-04-20T04:53:51.614Z,3.599999905
2023-04-20T04:54:52.516Z,3.5
2023-04-20T04:55:54.065Z,3.299999952
2023-04-20T04:56:55.030Z,3.599999905
2023-04-20T04:57:56.545Z,3.400000095
2023-04-20T04:58:57.628Z,3.599999905
2023-04-20T04:59:59.579Z,4.099999905
2023-04-20T05:01:00.491Z,3.599999905
2023-04-20T05:02:01.980Z,3.400000095
2023-04-20T05:03:03.570Z,3.599999905
2023-04-20T05:04:05.708Z,3.5
2023-04-20T05:05:08.938Z,3.400000095
2023-04-20T05:06:07.373Z,3.599999905
2023-04-20T05:07:08.382Z,3.5
2023-04-20T05:08:10.159Z,3.400000095
2023-04-20T05:09:12.010Z,3.799999952
2023-04-20T05:10:43.769Z,3.200000048
2023-04-20T05:12:15.440Z,4.400000095
2023-04-20T05:13:17.219Z,3.799999952
2023-04-20T05:14:49.429Z,4.199999809
2023-04-20T05:15:50.516Z,3.799999952
2023-04-20T05:16:51.412Z,4.5
2023-04-20T05:17:52.422Z,4.5
2023-04-20T05:18:53.180Z,4.199999809
2023-04-20T05:19:54.062Z,3.900000095
2023-04-20T05:20:55.023Z,4.099999905
2023-04-20T05:21:56.064Z,4
2023-04-20T05:22:57.556Z,4.5
2023-04-20T05:23:59.067Z,4.300000191
2023-04-20T05:25:00.548Z,4.099999905
2023-04-20T05:26:01.671Z,4.400000095
2023-04-20T05:27:02.711Z,4.800000191
2023-04-20T05:28:04.988Z,5
2023-04-20T05:29:05.788Z,4.599999905
2023-04-20T05:30:19.528Z,4.300000191
2023-04-20T05:31:07.702Z,4.699999809
2023-04-20T05:32:08.889Z,5.099999905
2023-04-20T05:33:10.561Z,4.900000095
2023-04-20T05:34:12.107Z,5.199999809
2023-04-20T05:35:12.962Z,5.699999809
2023-04-20T05:36:14.558Z,6.199999809
2023-04-20T05:37:15.503Z,5.5
2023-04-20T05:38:17.508Z,5.699999809
2023-04-20T05:39:49.970Z,7.300000191
2023-04-20T05:40:52.106Z,5.400000095
2023-04-20T05:41:52.494Z,5.300000191
2023-04-20T05:42:54.184Z,4.900000095
2023-04-20T05:43:54.996Z,5.400000095
2023-04-20T05:44:56.530Z,4.699999809
2023-04-20T05:45:57.472Z,4.599999905
2023-04-20T05:46:58.435Z,4.800000191
2023-04-20T05:48:00.241Z,5.800000191
2023-04-20T05:49:02.015Z,5.300000191
2023-04-20T05:50:02.923Z,4.900000095
2023-04-20T05:51:03.873Z,5
2023-04-20T05:52:04.846Z,4.5
2023-04-20T05:53:06.491Z,5.199999809
2023-04-20T05:54:08.044Z,4.400000095
2023-04-20T05:55:08.942Z,5.199999809
2023-04-20T05:56:10.520Z,5.199999809
2023-04-20T05:57:11.508Z,4.699999809
2023-04-20T05:58:12.984Z,5.900000095
2023-04-20T05:59:15.216Z,7.300000191
2023-04-20T06:00:15.956Z,9.899999619
2023-04-20T06:01:17.339Z,5.900000095
2023-04-20T06:02:49.650Z,5.900000095
2023-04-20T06:03:50.594Z,5.199999809
2023-04-20T06:04:52.134Z,4.800000191
2023-04-20T06:05:52.999Z,5
2023-04-20T06:06:54.069Z,6.300000191
2023-04-20T06:07:55.607Z,5.599999905
2023-04-20T06:08:56.524Z,6
2023-04-20T06:09:58.083Z,5.099999905
2023-04-20T06:11:00.160Z,4.800000191
2023-04-20T06:12:01.203Z,4.900000095
2023-04-20T06:13:03.084Z,5.400000095
2023-04-20T06:14:04.538Z,4.800000191
2023-04-20T06:15:06.584Z,4.300000191
2023-04-20T06:16:07.642Z,4.699999809
2023-04-20T06:17:09.078Z,4.099999905
2023-04-20T06:18:11.044Z,4.300000191
2023-04-20T06:19:12.113Z,4.5
2023-04-20T06:20:13.066Z,4.5
2023-04-20T06:21:14.420Z,4.699999809
2023-04-20T06:22:15.357Z,4.300000191
2023-04-20T06:23:47.848Z,4.199999809
2023-04-20T06:24:49.576Z,4.599999905
2023-04-20T06:25:50.609Z,3.700000048
2023-04-20T06:26:51.746Z,4.400000095
2023-04-20T06:27:53.506Z,4.300000191
2023-04-20T06:28:54.724Z,5.099999905
2023-04-20T06:29:55.603Z,4.699999809
2023-04-20T06:30:56.702Z,4.5
2023-04-20T06:31:57.700Z,3.799999952
2023-04-20T06:32:59.697Z,4.199999809
2023-04-20T06:34:00.562Z,4.099999905
2023-04-20T06:35:02.049Z,4.400000095
2023-04-20T06:36:03.035Z,4.099999905
2023-04-20T06:37:04.112Z,4.099999905
2023-04-20T06:38:06.095Z,4.199999809
2023-04-20T06:39:07.692Z,4.400000095
2023-04-20T06:40:09.703Z,4.5
2023-04-20T06:41:10.584Z,4.099999905
2023-04-20T06:42:11.667Z,4.5
2023-04-20T06:43:13.843Z,4.099999905
2023-04-20T06:44:15.570Z,4.900000095
2023-04-20T06:45:47.576Z,3.900000095
2023-04-20T06:46:49.172Z,4.599999905
2023-04-20T06:47:51.099Z,4.300000191
2023-04-20T06:48:52.486Z,4.300000191
2023-04-20T06:49:53.393Z,4.199999809
2023-04-20T06:50:54.514Z,4.400000095
2023-04-20T06:51:55.556Z,3.400000095
2023-04-20T06:52:57.049Z,4.300000191
2023-04-20T06:53:58.526Z,4
2023-04-20T06:55:00.280Z,3.5
2023-04-20T06:56:01.240Z,3.5
2023-04-20T06:57:03.080Z,4
2023-04-20T06:58:04.565Z,3.900000095
2023-04-20T06:59:05.335Z,3.799999952
2023-04-20T07:00:06.289Z,3.700000048
2023-04-20T07:01:08.250Z,4.099999905
2023-04-20T07:02:09.168Z,3.700000048
2023-04-20T07:03:11.211Z,3.400000095
2023-04-20T07:04:12.461Z,3.799999952
2023-04-20T07:05:14.122Z,3.799999952
2023-04-20T07:06:15.152Z,3.700000048
2023-04-20T07:07:17.530Z,4
2023-04-20T07:08:49.473Z,3.599999905
2023-04-20T07:09:51.076Z,3.200000048
2023-04-20T07:10:52.214Z,3.799999952
2023-04-20T07:11:53.196Z,3.400000095
2023-04-20T07:12:54.555Z,3.400000095
2023-04-20T07:13:55.465Z,3.5
2023-04-20T07:14:57.095Z,3.400000095
2023-04-20T07:15:58.200Z,3.400000095
2023-04-20T07:16:59.154Z,3.200000048
2023-04-20T07:18:01.007Z,3
2023-04-20T07:19:01.920Z,3.599999905
2023-04-20T07:20:03.628Z,3
2023-04-20T07:21:04.687Z,3.200000048
2023-04-20T07:22:05.617Z,3.5
2023-04-20T07:23:07.582Z,3.299999952
2023-04-20T07:24:08.606Z,3.299999952
2023-04-20T07:25:10.903Z,3.200000048
2023-04-20T07:26:11.904Z,4.099999905
2023-04-20T07:27:12.829Z,3.5
2023-04-20T07:28:14.675Z,3.299999952
2023-04-20T07:29:16.989Z,3.599999905
2023-04-20T07:30:48.130Z,3.900000095
2023-04-20T07:31:49.086Z,3.599999905
2023-04-20T07:32:50.607Z,3.200000048
2023-04-20T07:33:51.494Z,3.799999952
2023-04-20T07:34:53.228Z,3.200000048
2023-04-20T07:35:54.215Z,3.400000095
2023-04-20T07:36:56.023Z,3.900000095
2023-04-20T07:37:56.984Z,3.700000048
2023-04-20T07:38:58.632Z,3.400000095
2023-04-20T07:40:00.629Z,3.5
2023-04-20T07:41:01.532Z,4
2023-04-20T07:42:03.133Z,3.200000048
2023-04-20T07:43:04.223Z,3.400000095
2023-04-20T07:44:06.074Z,3.200000048
2023-04-20T07:45:08.181Z,3.299999952
2023-04-20T07:46:09.186Z,3.799999952
2023-04-20T07:47:10.091Z,3.599999905
2023-04-20T07:48:12.138Z,3
2023-04-20T07:49:13.089Z,3.700000048
2023-04-20T07:50:14.416Z,3.5
2023-04-20T07:51:15.356Z,3.400000095
2023-04-20T07:52:47.591Z,3.299999952
2023-04-20T07:53:48.605Z,3.200000048
2023-04-20T07:54:50.064Z,3.299999952
2023-04-20T07:55:51.626Z,3.099999905
2023-04-20T07:56:52.472Z,3.400000095
2023-04-20T07:57:54.027Z,3.099999905
2023-04-20T07:58:54.974Z,3.099999905
2023-04-20T07:59:55.993Z,3.200000048
2023-04-20T08:00:56.933Z,3
2023-04-20T08:01:57.943Z,2.900000095
2023-04-20T08:02:59.683Z,3
2023-04-20T08:04:00.745Z,3.099999905
2023-04-20T08:05:01.598Z,3
2023-04-20T08:06:03.550Z,2.900000095
2023-04-20T08:07:05.108Z,3.5
2023-04-20T08:08:05.983Z,3
2023-04-20T08:09:07.559Z,2.599999905
2023-04-20T08:10:09.245Z,2.5
2023-04-20T08:11:11.069Z,3
2023-04-20T08:12:11.939Z,3.400000095
2023-04-20T08:13:13.797Z,2.900000095
2023-04-20T08:14:14.954Z,2.5
2023-04-20T08:15:47.106Z,2.900000095
2023-04-20T08:16:48.075Z,2.799999952
2023-04-20T08:17:50.115Z,3
2023-04-20T08:18:51.074Z,3
2023-04-20T08:19:52.507Z,3.299999952
2023-04-20T08:20:53.673Z,2.599999905
2023-04-20T08:21:54.530Z,2.5
2023-04-20T08:22:56.067Z,2.599999905
2023-04-20T08:23:57.060Z,2.400000095
2023-04-20T08:24:57.928Z,2.200000048
2023-04-20T08:25:59.556Z,2
2023-04-20T08:27:00.512Z,2.400000095
2023-04-20T08:28:02.804Z,2.599999905
2023-04-20T08:29:02.874Z,2.5
2023-04-20T08:30:03.893Z,2
2023-04-20T08:31:05.055Z,2.299999952
2023-04-20T08:32:05.990Z,2.200000048
2023-04-20T08:33:07.554Z,2
2023-04-20T08:34:09.164Z,1.799999952
2023-04-20T08:35:10.108Z,2.299999952
2023-04-20T08:36:12.028Z,2
2023-04-20T08:37:12.990Z,2
2023-04-20T08:38:18.058Z,2.200000048
2023-04-20T08:39:47.617Z,2
2023-04-20T08:40:49.106Z,1.799999952
2023-04-20T08:41:50.199Z,2
2023-04-20T08:42:51.153Z,2.099999905
2023-04-20T08:43:52.300Z,2.299999952
2023-04-20T08:44:54.096Z,1.799999952
2023-04-20T08:45:56.024Z,2.299999952
2023-04-20T08:46:57.092Z,2.099999905
2023-04-20T08:47:58.670Z,2.099999905
2023-04-20T08:48:59.573Z,2.200000048
2023-04-20T08:50:00.453Z,2.099999905
2023-04-20T08:51:01.783Z,2.299999952
2023-04-20T08:52:02.698Z,1.700000048
2023-04-20T08:53:04.802Z,2.099999905
2023-04-20T08:54:05.622Z,1.700000048
2023-04-20T08:55:06.490Z,2
2023-04-20T08:56:08.062Z,2.599999905
2023-04-20T08:57:09.592Z,2.200000048
2023-04-20T08:58:11.592Z,1.899999976
2023-04-20T08:59:13.040Z,2
2023-04-20T09:00:14.282Z,3.400000095
2023-04-20T09:01:46.992Z,3.700000048
2023-04-20T09:02:48.722Z,3.799999952
2023-04-20T09:03:50.057Z,3.799999952
2023-04-20T09:04:50.627Z,3.200000048
2023-04-20T09:05:52.565Z,2.799999952
2023-04-20T09:06:53.575Z,2.299999952
2023-04-20T09:07:55.086Z,2.799999952
2023-04-20T09:08:55.926Z,2.599999905
2023-04-20T09:09:57.480Z,2.299999952
2023-04-20T09:10:59.073Z,2.599999905
2023-04-20T09:12:00.261Z,2.299999952
2023-04-20T09:13:01.252Z,2
2023-04-20T09:14:02.951Z,2.099999905
2023-04-20T09:15:03.804Z,2
2023-04-20T09:16:05.650Z,2.299999952
2023-04-20T09:17:06.391Z,2.099999905
2023-04-20T09:18:08.025Z,2
2023-04-20T09:19:09.503Z,1.899999976
2023-04-20T09:20:09.772Z,2.299999952
2023-04-20T09:21:10.708Z,2.299999952
2023-04-20T09:22:11.637Z,2.099999905
2023-04-20T09:23:13.781Z,1.700000048
2023-04-20T09:24:15.280Z,1.700000048
2023-04-20T09:25:47.049Z,2.099999905
2023-04-20T09:26:48.098Z,1.799999952
2023-04-20T09:27:49.587Z,1.799999952
2023-04-20T09:28:50.507Z,3.400000095
2023-04-20T09:29:52.015Z,2.299999952
2023-04-20T09:30:53.055Z,2.099999905
2023-04-20T09:31:54.053Z,2.099999905
2023-04-20T09:32:55.657Z,2.599999905
2023-04-20T09:33:56.544Z,2.099999905
2023-04-20T09:34:58.145Z,2.400000095
2023-04-20T09:36:00.025Z,2.299999952
2023-04-20T09:37:00.947Z,2.099999905
2023-04-20T09:38:02.732Z,2.099999905
2023-04-20T09:39:03.723Z,1.899999976
2023-04-20T09:40:05.639Z,1.899999976
2023-04-20T09:41:07.613Z,2.200000048
2023-04-20T09:42:08.539Z,2.200000048
2023-04-20T09:43:10.016Z,2
2023-04-20T09:44:11.145Z,2.599999905
2023-04-20T09:45:12.019Z,2.099999905
2023-04-20T09:46:13.892Z,1.899999976
2023-04-20T09:47:15.123Z,1.700000048
2023-04-20T09:48:47.469Z,1.799999952
2023-04-20T09:49:48.394Z,5
2023-04-20T09:50:51.562Z,6.300000191
2023-04-20T09:51:51.024Z,3.900000095
2023-04-20T09:52:52.530Z,3.200000048
2023-04-20T09:53:53.646Z,6.199999809
2023-04-20T09:54:54.557Z,3.200000048
2023-04-20T09:55:56.152Z,3.5
2023-04-20T09:56:57.049Z,3.299999952
2023-04-20T09:57:58.516Z,7.300000191
2023-04-20T09:59:00.003Z,7
2023-04-20T10:00:01.570Z,4.300000191
2023-04-20T10:01:02.537Z,3.599999905
2023-04-20T10:02:03.506Z,3.799999952
2023-04-20T10:03:05.238Z,2.200000048
2023-04-20T10:04:06.318Z,1.700000048
2023-04-20T10:05:06.973Z,2
2023-04-20T10:06:09.087Z,2.200000048
2023-04-20T10:07:10.088Z,1.799999952
2023-04-20T10:08:12.020Z,2.099999905
2023-04-20T10:09:12.917Z,1.600000024
2023-04-20T10:10:15.040Z,2.5
2023-04-20T10:11:53.185Z,3.099999905
2023-04-20T10:12:48.597Z,2.200000048
2023-04-20T10:13:49.651Z,2.200000048
2023-04-20T10:14:51.477Z,2.200000048
2023-04-20T10:15:52.561Z,2.099999905
2023-04-20T10:16:54.113Z,1.600000024
2023-04-20T10:17:55.840Z,1.700000048
2023-04-20T10:18:56.918Z,1.600000024
2023-04-20T10:19:58.521Z,1.700000048
2023-04-20T10:20:59.514Z,1.700000048
2023-04-20T10:22:00.994Z,1.799999952
2023-04-20T10:23:02.680Z,2.099999905
2023-04-20T10:24:04.586Z,2.299999952
2023-04-20T10:25:06.705Z,2
2023-04-20T10:26:08.543Z,2
2023-04-20T10:27:09.988Z,2.400000095
2023-04-20T10:28:10.899Z,2.200000048
2023-04-20T10:29:11.852Z,2.700000048
2023-04-20T10:30:12.764Z,2.299999952
2023-04-20T10:31:14.686Z,2.599999905
2023-04-20T10:32:46.087Z,2.099999905
2023-04-20T10:33:47.617Z,2.200000048
2023-04-20T10:34:48.545Z,3
2023-04-20T10:35:50.002Z,2.5
2023-04-20T10:36:51.051Z,2.5
2023-04-20T10:37:52.024Z,2.400000095
2023-04-20T10:38:52.921Z,2.5
2023-04-20T10:39:53.776Z,2.599999905
2023-04-20T10:40:54.795Z,4.400000095
2023-04-20T10:41:55.784Z,4.900000095
2023-04-20T10:42:56.692Z,4
2023-04-20T10:43:58.458Z,3.299999952
2023-04-20T10:44:59.456Z,2.299999952
2023-04-20T10:46:01.192Z,2.599999905
2023-04-20T10:47:02.983Z,4.199999809
2023-04-20T10:48:03.884Z,3.200000048
2023-04-20T10:49:05.567Z,2.599999905
2023-04-20T10:50:06.587Z,2.799999952
2023-04-20T10:51:07.525Z,2.400000095
2023-04-20T10:52:08.452Z,2.299999952
2023-04-20T10:53:10.081Z,2.200000048
2023-04-20T10:54:11.010Z,2.299999952
2023-04-20T10:55:11.987Z,2.299999952
2023-04-20T10:56:13.102Z,1.899999976
2023-04-20T10:57:45.519Z,2.099999905
2023-04-20T10:58:47.009Z,2.099999905
2023-04-20T10:59:47.961Z,2.099999905
2023-04-20T11:00:48.938Z,2.200000048
2023-04-20T11:01:49.856Z,2.299999952
2023-04-20T11:02:51.765Z,2.5
2023-04-20T11:03:53.172Z,2.599999905
2023-04-20T11:04:54.041Z,2.799999952
2023-04-20T11:05:55.589Z,2.799999952
2023-04-20T11:06:56.530Z,2
2023-04-20T11:07:58.108Z,2
2023-04-20T11:08:59.650Z,2.200000048
2023-04-20T11:10:01.588Z,2
2023-04-20T11:11:03.627Z,2.400000095
2023-04-20T11:12:04.899Z,2.299999952
2023-04-20T11:13:05.976Z,2.700000048
2023-04-20T11:14:07.555Z,2.599999905
2023-04-20T11:15:09.137Z,2.299999952
2023-04-20T11:16:10.170Z,2.700000048
2023-04-20T11:17:11.549Z,2.400000095
2023-04-20T11:18:12.572Z,3.200000048
2023-04-20T11:19:14.046Z,3.799999952
2023-04-20T11:20:45.665Z,3.5
2023-04-20T11:21:46.562Z,3.099999905
2023-04-20T11:22:48.051Z,3.700000048
2023-04-20T11:23:48.938Z,4.400000095
2023-04-20T11:24:50.535Z,3
2023-04-20T11:25:51.430Z,3.200000048
2023-04-20T11:26:53.061Z,3.400000095
2023-04-20T11:27:54.017Z,3.5
2023-04-20T11:28:56.313Z,3.200000048
2023-04-20T11:29:56.493Z,2.799999952
2023-04-20T11:30:57.444Z,2.900000095
2023-04-20T11:31:59.665Z,3.099999905
2023-04-20T11:33:00.941Z,3.099999905
2023-04-20T11:34:01.961Z,2.900000095
2023-04-20T11:35:06.864Z,2.799999952
2023-04-20T11:36:03.622Z,2.799999952
2023-04-20T11:37:05.630Z,2.799999952
2023-04-20T11:38:07.756Z,2.900000095
2023-04-20T11:39:09.584Z,2.900000095
2023-04-20T11:40:11.082Z,2.799999952
2023-04-20T11:41:12.034Z,2.900000095
2023-04-20T11:42:13.019Z,2.700000048
2023-04-20T11:43:45.605Z,3
2023-04-20T11:44:46.498Z,2.799999952
2023-04-20T11:45:47.469Z,3.099999905
2023-04-20T11:46:49.086Z,3
2023-04-20T11:47:50.616Z,2.599999905
2023-04-20T11:48:52.578Z,2.799999952
2023-04-20T11:49:53.569Z,2.599999905
2023-04-20T11:50:54.444Z,2.900000095
2023-04-20T11:51:55.491Z,3.200000048
2023-04-20T11:52:57.104Z,3